createdAt,value
2018-11-13T00:00:45.861Z,984.67
2018-11-13T00:01:45.780Z,984.66
2018-11-13T00:02:45.699Z,984.60
2018-11-13T00:03:45.614Z,984.60
2018-11-13T00:04:45.532Z,984.62
2018-11-13T00:05:45.451Z,984.59
2018-11-13T00:06:45.368Z,984.59
2018-11-13T00:07:45.286Z,984.55
2018-11-13T00:08:45.211Z,984.56
2018-11-13T00:09:45.120Z,984.60
2018-11-13T00:10:45.041Z,984.57
2018-11-13T00:11:44.958Z,984.54
2018-11-13T00:12:44.875Z,984.55
2018-11-13T00:13:44.794Z,984.55
2018-11-13T00:14:44.710Z,984.58
2018-11-13T00:15:44.626Z,984.57
2018-11-13T00:16:44.549Z,984.61
2018-11-13T00:17:44.462Z,984.63
2018-11-13T00:18:44.381Z,984.62
2018-11-13T00:19:44.295Z,984.61
2018-11-13T00:20:44.224Z,984.59
2018-11-13T00:21:44.135Z,984.59
2018-11-13T00:22:44.052Z,984.61
2018-11-13T00:23:43.971Z,984.64
2018-11-13T00:24:43.895Z,984.64
2018-11-13T00:25:43.801Z,984.62
2018-11-13T00:26:43.719Z,984.65
2018-11-13T00:27:43.752Z,984.63
2018-11-13T00:28:43.557Z,984.60
2018-11-13T00:29:43.473Z,984.55
2018-11-13T00:30:43.389Z,984.57
2018-11-13T00:31:43.306Z,984.56
2018-11-13T00:32:45.784Z,984.59
2018-11-13T00:33:43.151Z,984.58
2018-11-13T00:34:43.061Z,984.57
2018-11-13T00:35:42.976Z,984.51
2018-11-13T00:36:42.895Z,984.53
2018-11-13T00:37:42.811Z,984.56
2018-11-13T00:38:42.733Z,984.55
2018-11-13T00:39:42.651Z,984.56
2018-11-13T00:40:42.565Z,984.54
2018-11-13T00:41:42.481Z,984.55
2018-11-13T00:42:42.400Z,984.60
2018-11-13T00:43:42.318Z,984.59
2018-11-13T00:44:42.236Z,984.63
2018-11-13T00:45:42.173Z,984.58
2018-11-13T00:46:42.071Z,984.63
2018-11-13T00:47:41.986Z,984.66
2018-11-13T00:48:41.902Z,984.65
2018-11-13T00:49:41.821Z,984.65
2018-11-13T00:50:41.798Z,984.64
2018-11-13T00:51:41.657Z,984.61
2018-11-13T00:52:41.573Z,984.63
2018-11-13T00:53:41.499Z,984.64
2018-11-13T00:54:41.454Z,984.70
2018-11-13T00:55:41.326Z,984.67
2018-11-13T00:56:41.243Z,984.68
2018-11-13T00:57:41.781Z,984.67
2018-11-13T00:58:41.098Z,984.69
2018-11-13T00:59:40.996Z,984.68
2018-11-13T01:00:40.960Z,984.67
2018-11-13T01:01:40.831Z,984.70
2018-11-13T01:02:40.756Z,984.68
2018-11-13T01:03:40.667Z,984.70
2018-11-13T01:04:40.587Z,984.70
2018-11-13T01:05:40.504Z,984.70
2018-11-13T01:06:40.419Z,984.73
2018-11-13T01:07:40.371Z,984.66
2018-11-13T01:08:40.253Z,984.64
2018-11-13T01:09:40.174Z,984.60
2018-11-13T01:10:40.091Z,984.61
2018-11-13T01:11:40.020Z,984.61
2018-11-13T01:12:39.922Z,984.63
2018-11-13T01:13:39.840Z,984.60
2018-11-13T01:14:39.771Z,984.60
2018-11-13T01:15:39.677Z,984.60
2018-11-13T01:16:39.592Z,984.56
2018-11-13T01:17:39.510Z,984.58
2018-11-13T01:18:39.430Z,984.58
2018-11-13T01:19:39.345Z,984.58
2018-11-13T01:20:39.261Z,984.59
2018-11-13T01:21:39.181Z,984.59
2018-11-13T01:22:39.111Z,984.56
2018-11-13T01:23:39.072Z,984.54
2018-11-13T01:24:38.930Z,984.52
2018-11-13T01:25:38.855Z,984.54
2018-11-13T01:26:38.765Z,984.55
2018-11-13T01:27:38.680Z,984.56
2018-11-13T01:28:38.605Z,984.55
2018-11-13T01:29:38.517Z,984.51
2018-11-13T01:30:38.436Z,984.55
2018-11-13T01:31:38.353Z,984.52
2018-11-13T01:32:38.269Z,984.56
2018-11-13T01:33:38.185Z,984.52
2018-11-13T01:34:38.107Z,984.52
2018-11-13T01:35:38.021Z,984.55
2018-11-13T01:36:37.942Z,984.50
2018-11-13T01:37:37.857Z,984.50
2018-11-13T01:38:37.775Z,984.54
2018-11-13T01:39:37.692Z,984.51
2018-11-13T01:40:37.607Z,984.52
2018-11-13T01:41:37.566Z,984.51
2018-11-13T01:42:37.444Z,984.54
2018-11-13T01:43:37.360Z,984.53
2018-11-13T01:44:37.282Z,984.50
2018-11-13T01:45:37.197Z,984.48
2018-11-13T01:46:37.112Z,984.48
2018-11-13T01:47:37.035Z,984.54
2018-11-13T01:48:36.945Z,984.57
2018-11-13T01:49:36.895Z,984.58
2018-11-13T01:50:36.783Z,984.59
2018-11-13T01:51:36.698Z,984.61
2018-11-13T01:52:36.617Z,984.63
2018-11-13T01:53:36.537Z,984.64
2018-11-13T01:54:36.465Z,984.61
2018-11-13T01:55:36.369Z,984.61
2018-11-13T01:56:36.301Z,984.59
2018-11-13T01:57:36.222Z,984.59
2018-11-13T01:58:36.121Z,984.56
2018-11-13T01:59:36.038Z,984.55
2018-11-13T02:00:35.957Z,984.55
2018-11-13T02:01:35.874Z,984.53
2018-11-13T02:02:35.796Z,984.55
2018-11-13T02:03:35.713Z,984.56
2018-11-13T02:04:35.662Z,984.57
2018-11-13T02:05:35.545Z,984.56
2018-11-13T02:06:35.459Z,984.58
2018-11-13T02:07:35.377Z,984.61
2018-11-13T02:08:35.297Z,984.57
2018-11-13T02:09:35.214Z,984.64
2018-11-13T02:10:35.150Z,984.57
2018-11-13T02:11:35.052Z,984.60
2018-11-13T02:12:34.967Z,984.58
2018-11-13T02:13:34.882Z,984.52
2018-11-13T02:14:34.799Z,984.56
2018-11-13T02:15:34.717Z,984.55
2018-11-13T02:16:34.639Z,984.57
2018-11-13T02:17:34.555Z,984.52
2018-11-13T02:18:34.496Z,984.50
2018-11-13T02:19:34.389Z,984.47
2018-11-13T02:20:34.311Z,984.48
2018-11-13T02:21:34.227Z,984.46
2018-11-13T02:22:34.146Z,984.38
2018-11-13T02:23:34.054Z,984.41
2018-11-13T02:24:33.981Z,984.43
2018-11-13T02:25:33.894Z,984.42
2018-11-13T02:26:33.813Z,984.37
2018-11-13T02:27:33.727Z,984.37
2018-11-13T02:28:33.649Z,984.39
2018-11-13T02:29:33.562Z,984.37
2018-11-13T02:30:33.481Z,984.37
2018-11-13T02:31:33.397Z,984.32
2018-11-13T02:32:33.325Z,984.41
2018-11-13T02:33:33.229Z,984.37
2018-11-13T02:34:33.158Z,984.39
2018-11-13T02:35:33.150Z,984.40
2018-11-13T02:36:32.988Z,984.42
2018-11-13T02:37:32.903Z,984.39
2018-11-13T02:38:32.817Z,984.37
2018-11-13T02:39:32.734Z,984.41
2018-11-13T02:40:32.660Z,984.36
2018-11-13T02:41:32.573Z,984.38
2018-11-13T02:42:32.497Z,984.37
2018-11-13T02:43:32.406Z,984.36
2018-11-13T02:44:32.340Z,984.37
2018-11-13T02:45:32.241Z,984.34
2018-11-13T02:46:32.173Z,984.33
2018-11-13T02:47:32.333Z,984.31
2018-11-13T02:48:31.994Z,984.31
2018-11-13T02:49:31.976Z,984.28
2018-11-13T02:50:31.836Z,984.25
2018-11-13T02:51:31.746Z,984.27
2018-11-13T02:52:31.664Z,984.24
2018-11-13T02:53:31.578Z,984.26
2018-11-13T02:54:31.503Z,984.27
2018-11-13T02:55:31.416Z,984.22
2018-11-13T02:56:31.328Z,984.22
2018-11-13T02:57:31.252Z,984.16
2018-11-13T02:58:31.164Z,984.15
2018-11-13T02:59:31.085Z,984.17
2018-11-13T03:00:31.001Z,984.14
2018-11-13T03:01:30.917Z,984.14
2018-11-13T03:02:30.833Z,984.14
2018-11-13T03:03:30.749Z,984.10
2018-11-13T03:04:30.667Z,984.11
2018-11-13T03:05:30.605Z,984.13
2018-11-13T03:06:30.505Z,984.11
2018-11-13T03:07:30.435Z,984.14
2018-11-13T03:08:30.337Z,984.17
2018-11-13T03:09:30.257Z,984.17
2018-11-13T03:10:30.177Z,984.19
2018-11-13T03:11:30.094Z,984.18
2018-11-13T03:12:30.014Z,984.17
2018-11-13T03:13:30.024Z,984.17
2018-11-13T03:14:29.845Z,984.16
2018-11-13T03:15:29.771Z,984.15
2018-11-13T03:16:29.684Z,984.18
2018-11-13T03:17:29.594Z,984.16
2018-11-13T03:18:29.512Z,984.14
2018-11-13T03:19:29.438Z,984.15
2018-11-13T03:20:29.346Z,984.16
2018-11-13T03:21:29.272Z,984.15
2018-11-13T03:22:29.180Z,984.10
2018-11-13T03:23:29.105Z,984.08
2018-11-13T03:24:29.015Z,984.07
2018-11-13T03:25:28.934Z,984.10
2018-11-13T03:26:28.852Z,984.10
2018-11-13T03:27:28.768Z,984.10
2018-11-13T03:28:28.705Z,984.09
2018-11-13T03:29:28.612Z,984.11
2018-11-13T03:30:28.524Z,984.15
2018-11-13T03:31:28.670Z,984.13
2018-11-13T03:32:28.356Z,984.14
2018-11-13T03:33:28.272Z,984.16
2018-11-13T03:34:28.190Z,984.20
2018-11-13T03:35:28.114Z,984.22
2018-11-13T03:36:28.026Z,984.25
2018-11-13T03:37:27.964Z,984.23
2018-11-13T03:38:27.860Z,984.27
2018-11-13T03:39:27.778Z,984.25
2018-11-13T03:40:27.699Z,984.26
2018-11-13T03:41:27.612Z,984.28
2018-11-13T03:42:27.532Z,984.25
2018-11-13T03:43:27.447Z,984.25
2018-11-13T03:44:27.370Z,984.24
2018-11-13T03:45:27.293Z,984.23
2018-11-13T03:46:27.200Z,984.20
2018-11-13T03:47:27.116Z,984.20
2018-11-13T03:48:27.034Z,984.22
2018-11-13T03:49:26.952Z,984.20
2018-11-13T03:50:26.872Z,984.19
2018-11-13T03:51:26.788Z,984.17
2018-11-13T03:52:26.706Z,984.16
2018-11-13T03:53:26.623Z,984.20
2018-11-13T03:54:26.558Z,984.24
2018-11-13T03:55:26.457Z,984.25
2018-11-13T03:56:26.374Z,984.27
2018-11-13T03:57:26.292Z,984.23
2018-11-13T03:58:26.214Z,984.23
2018-11-13T03:59:26.125Z,984.17
2018-11-13T04:00:26.047Z,984.14
2018-11-13T04:01:25.965Z,984.19
2018-11-13T04:02:25.886Z,984.20
2018-11-13T04:03:25.794Z,984.22
2018-11-13T04:04:25.717Z,984.20
2018-11-13T04:05:25.636Z,984.23
2018-11-13T04:06:25.552Z,984.20
2018-11-13T04:07:25.466Z,984.26
2018-11-13T04:08:25.387Z,984.23
2018-11-13T04:09:25.334Z,984.25
2018-11-13T04:10:25.222Z,984.24
2018-11-13T04:11:25.135Z,984.27
2018-11-13T04:12:25.054Z,984.28
2018-11-13T04:13:24.970Z,984.27
2018-11-13T04:14:24.888Z,984.28
2018-11-13T04:15:24.803Z,984.30
2018-11-13T04:16:24.727Z,984.36
2018-11-13T04:17:24.659Z,984.40
2018-11-13T04:18:24.563Z,984.44
2018-11-13T04:19:24.478Z,984.42
2018-11-13T04:20:24.393Z,984.41
2018-11-13T04:21:24.307Z,984.43
2018-11-13T04:22:24.237Z,984.44
2018-11-13T04:23:24.146Z,984.46
2018-11-13T04:24:24.062Z,984.41
2018-11-13T04:25:23.980Z,984.43
2018-11-13T04:26:23.899Z,984.42
2018-11-13T04:27:23.820Z,984.46
2018-11-13T04:28:23.732Z,984.46
2018-11-13T04:29:23.651Z,984.50
2018-11-13T04:30:23.570Z,984.52
2018-11-13T04:31:23.489Z,984.54
2018-11-13T04:32:23.402Z,984.56
2018-11-13T04:33:23.320Z,984.53
2018-11-13T04:34:23.237Z,984.49
2018-11-13T04:35:23.153Z,984.50
2018-11-13T04:36:23.074Z,984.49
2018-11-13T04:37:22.988Z,984.42
2018-11-13T04:38:22.906Z,984.41
2018-11-13T04:39:22.829Z,984.42
2018-11-13T04:40:22.749Z,984.44
2018-11-13T04:41:22.659Z,984.52
2018-11-13T04:42:22.574Z,984.53
2018-11-13T04:43:22.491Z,984.56
2018-11-13T04:44:22.408Z,984.60
2018-11-13T04:45:22.324Z,984.60
2018-11-13T04:46:22.244Z,984.60
2018-11-13T04:47:22.163Z,984.57
2018-11-13T04:48:22.082Z,984.58
2018-11-13T04:49:21.995Z,984.56
2018-11-13T04:50:21.914Z,984.53
2018-11-13T04:51:21.849Z,984.55
2018-11-13T04:52:21.745Z,984.57
2018-11-13T04:53:21.665Z,984.58
2018-11-13T04:54:21.585Z,984.56
2018-11-13T04:55:21.504Z,984.57
2018-11-13T04:56:21.420Z,984.56
2018-11-13T04:57:21.333Z,984.55
2018-11-13T04:58:21.253Z,984.57
2018-11-13T04:59:21.168Z,984.62
2018-11-13T05:00:21.083Z,984.62
2018-11-13T05:01:21.001Z,984.65
2018-11-13T05:02:20.919Z,984.69
2018-11-13T05:03:20.841Z,984.67
2018-11-13T05:04:20.755Z,984.67
2018-11-13T05:05:20.671Z,984.69
2018-11-13T05:06:20.589Z,984.70
2018-11-13T05:07:20.509Z,984.71
2018-11-13T05:08:20.421Z,984.73
2018-11-13T05:09:20.346Z,984.74
2018-11-13T05:10:20.371Z,984.74
2018-11-13T05:11:20.180Z,984.79
2018-11-13T05:12:20.093Z,984.82
2018-11-13T05:13:20.008Z,984.88
2018-11-13T05:14:19.948Z,984.91
2018-11-13T05:15:19.841Z,984.99
2018-11-13T05:16:19.760Z,984.98
2018-11-13T05:17:19.677Z,984.99
2018-11-13T05:18:19.593Z,984.96
2018-11-13T05:19:19.517Z,984.96
2018-11-13T05:20:19.438Z,984.99
2018-11-13T05:21:19.346Z,984.99
2018-11-13T05:22:19.264Z,985.05
2018-11-13T05:23:19.310Z,985.17
2018-11-13T05:24:19.097Z,985.23
2018-11-13T05:25:19.019Z,985.24
2018-11-13T05:26:18.933Z,985.27
2018-11-13T05:27:18.852Z,985.29
2018-11-13T05:28:18.776Z,985.28
2018-11-13T05:29:18.694Z,985.35
2018-11-13T05:30:18.602Z,985.46
2018-11-13T05:31:18.518Z,985.50
2018-11-13T05:32:18.437Z,985.45
2018-11-13T05:33:18.358Z,985.50
2018-11-13T05:34:18.272Z,985.62
2018-11-13T05:35:18.186Z,985.66
2018-11-13T05:36:18.107Z,985.64
2018-11-13T05:37:18.021Z,985.64
2018-11-13T05:38:17.942Z,985.67
2018-11-13T05:39:17.857Z,985.57
2018-11-13T05:40:17.773Z,985.52
2018-11-13T05:41:17.696Z,985.54
2018-11-13T05:42:17.610Z,985.56
2018-11-13T05:43:17.529Z,985.52
2018-11-13T05:44:17.443Z,985.51
2018-11-13T05:45:17.358Z,985.42
2018-11-13T05:46:17.278Z,985.37
2018-11-13T05:47:17.271Z,985.34
2018-11-13T05:48:17.111Z,985.35
2018-11-13T05:49:17.028Z,985.38
2018-11-13T05:50:16.944Z,985.41
2018-11-13T05:51:16.866Z,985.36
2018-11-13T05:52:16.781Z,985.37
2018-11-13T05:53:16.699Z,985.35
2018-11-13T05:54:16.654Z,985.39
2018-11-13T05:55:16.531Z,985.41
2018-11-13T05:56:16.447Z,985.43
2018-11-13T05:57:16.366Z,985.43
2018-11-13T05:58:16.283Z,985.43
2018-11-13T05:59:16.215Z,985.41
2018-11-13T06:00:16.119Z,985.38
2018-11-13T06:01:16.034Z,985.37
2018-11-13T06:02:15.955Z,985.34
2018-11-13T06:03:15.867Z,985.30
2018-11-13T06:04:15.785Z,985.32
2018-11-13T06:05:15.700Z,985.30
2018-11-13T06:06:15.620Z,985.35
2018-11-13T06:07:15.540Z,985.41
2018-11-13T06:08:15.466Z,985.38
2018-11-13T06:09:15.373Z,985.40
2018-11-13T06:10:15.293Z,985.45
2018-11-13T06:11:15.203Z,985.52
2018-11-13T06:12:15.125Z,985.49
2018-11-13T06:13:15.038Z,985.49
2018-11-13T06:14:15.007Z,985.51
2018-11-13T06:15:14.875Z,985.49
2018-11-13T06:16:14.789Z,985.51
2018-11-13T06:17:14.707Z,985.55
2018-11-13T06:18:14.655Z,985.57
2018-11-13T06:19:14.544Z,985.60
2018-11-13T06:20:14.461Z,985.62
2018-11-13T06:21:14.375Z,985.63
2018-11-13T06:22:14.294Z,985.65
2018-11-13T06:23:14.212Z,985.66
2018-11-13T06:24:14.127Z,985.62
2018-11-13T06:25:14.053Z,985.67
2018-11-13T06:26:13.961Z,985.76
2018-11-13T06:27:13.879Z,985.80
2018-11-13T06:28:13.794Z,985.81
2018-11-13T06:29:13.763Z,985.78
2018-11-13T06:30:13.630Z,985.77
2018-11-13T06:31:13.554Z,985.81
2018-11-13T06:32:13.466Z,985.82
2018-11-13T06:33:21.039Z,985.87
2018-11-13T06:35:17.738Z,985.91
2018-11-13T06:36:17.591Z,985.90
2018-11-13T06:38:21.889Z,985.82
2018-11-13T06:39:21.801Z,985.79
2018-11-13T06:41:26.159Z,985.81
2018-11-13T06:42:26.015Z,985.81
2018-11-13T06:43:25.930Z,985.82
2018-11-13T06:44:25.863Z,985.80
2018-11-13T06:45:25.767Z,985.81
2018-11-13T06:46:25.682Z,985.83
2018-11-13T06:47:25.600Z,985.83
2018-11-13T06:48:25.520Z,985.89
2018-11-13T06:49:25.475Z,985.81
2018-11-13T06:50:25.352Z,985.84
2018-11-13T06:51:25.278Z,985.84
2018-11-13T06:52:25.193Z,985.90
2018-11-13T06:53:25.105Z,985.91
2018-11-13T06:54:25.022Z,985.96
2018-11-13T06:55:24.946Z,985.90
2018-11-13T06:56:24.861Z,985.88
2018-11-13T06:57:24.773Z,985.90
2018-11-13T06:58:24.692Z,985.97
2018-11-13T06:59:24.612Z,986.00
2018-11-13T07:00:24.527Z,986.02
2018-11-13T07:01:24.445Z,986.06
2018-11-13T07:02:24.359Z,986.09
2018-11-13T07:03:24.279Z,986.07
2018-11-13T07:04:24.222Z,986.09
2018-11-13T07:05:24.116Z,986.09
2018-11-13T07:06:24.030Z,986.12
2018-11-13T07:07:23.947Z,986.11
2018-11-13T07:08:23.864Z,986.10
2018-11-13T07:09:23.784Z,986.15
2018-11-13T07:10:23.700Z,986.23
2018-11-13T07:11:23.705Z,986.23
2018-11-13T07:12:23.537Z,986.21
2018-11-13T07:13:23.451Z,986.19
2018-11-13T07:14:23.368Z,986.23
2018-11-13T07:15:23.288Z,986.21
2018-11-13T07:16:23.266Z,986.25
2018-11-13T07:17:23.124Z,986.24
2018-11-13T07:18:23.084Z,986.23
2018-11-13T07:19:22.955Z,986.22
2018-11-13T07:20:22.872Z,986.28
2018-11-13T07:21:22.848Z,986.28
2018-11-13T07:22:22.760Z,986.28
2018-11-13T07:23:22.674Z,986.29
2018-11-13T07:24:22.542Z,986.27
2018-11-13T07:25:22.528Z,986.31
2018-11-13T07:26:22.375Z,986.38
2018-11-13T07:27:22.315Z,986.35
2018-11-13T07:28:22.210Z,986.37
2018-11-13T07:29:22.128Z,986.38
2018-11-13T07:30:22.060Z,986.40
2018-11-13T07:31:22.019Z,986.45
2018-11-13T07:32:21.887Z,986.48
2018-11-13T07:33:21.795Z,986.47
2018-11-13T07:34:21.792Z,986.47
2018-11-13T07:35:21.639Z,986.53
2018-11-13T07:36:21.558Z,986.50
2018-11-13T07:37:21.465Z,986.53
2018-11-13T07:38:21.382Z,986.51
2018-11-13T07:39:21.298Z,986.51
2018-11-13T07:40:21.217Z,986.50
2018-11-13T07:41:21.161Z,986.48
2018-11-13T07:42:21.066Z,986.50
2018-11-13T07:43:20.992Z,986.51
2018-11-13T07:44:20.886Z,986.56
2018-11-13T07:45:20.804Z,986.53
2018-11-13T07:46:20.728Z,986.54
2018-11-13T07:47:20.735Z,986.55
2018-11-13T07:48:20.554Z,986.60
2018-11-13T07:49:20.471Z,986.61
2018-11-13T07:50:20.388Z,986.58
2018-11-13T07:51:20.419Z,986.59
2018-11-13T07:52:20.223Z,986.57
2018-11-13T07:53:20.146Z,986.58
2018-11-13T07:54:20.062Z,986.61
2018-11-13T07:55:19.974Z,986.60
2018-11-13T07:56:19.912Z,986.64
2018-11-13T07:57:19.816Z,986.69
2018-11-13T07:58:19.727Z,986.64
2018-11-13T07:59:19.645Z,986.66
2018-11-13T08:00:19.566Z,986.67
2018-11-13T08:01:19.482Z,986.69
2018-11-13T08:02:19.404Z,986.69
2018-11-13T08:03:19.343Z,986.71
2018-11-13T08:04:19.248Z,986.76
2018-11-13T08:05:19.185Z,986.74
2018-11-13T08:06:19.129Z,986.79
2018-11-13T08:07:19.675Z,986.80
2018-11-13T08:08:18.901Z,986.83
2018-11-13T08:09:18.880Z,986.86
2018-11-13T08:10:18.739Z,986.90
2018-11-13T08:11:18.666Z,986.92
2018-11-13T08:12:18.569Z,986.89
2018-11-13T08:13:18.587Z,986.90
2018-11-13T08:14:18.412Z,986.90
2018-11-13T08:15:18.319Z,986.90
2018-11-13T08:16:18.237Z,986.89
2018-11-13T08:17:18.157Z,986.97
2018-11-13T08:18:18.098Z,986.99
2018-11-13T08:19:17.991Z,987.00
2018-11-13T08:20:17.911Z,987.03
2018-11-13T08:21:17.829Z,987.04
2018-11-13T08:22:17.818Z,987.07
2018-11-13T08:23:17.713Z,987.08
2018-11-13T08:24:17.581Z,987.09
2018-11-13T08:25:17.552Z,987.07
2018-11-13T08:26:20.202Z,987.09
2018-11-13T08:27:17.330Z,987.11
2018-11-13T08:28:17.342Z,987.13
2018-11-13T08:29:17.245Z,987.14
2018-11-13T08:30:17.155Z,987.15
2018-11-13T08:31:17.081Z,987.24
2018-11-13T08:32:16.972Z,987.22
2018-11-13T08:33:16.920Z,987.22
2018-11-13T08:34:16.799Z,987.30
2018-11-13T08:35:16.760Z,987.32
2018-11-13T08:36:16.661Z,987.33
2018-11-13T08:37:16.506Z,987.37
2018-11-13T08:38:16.472Z,987.39
2018-11-13T08:39:16.412Z,987.39
2018-11-13T08:40:16.272Z,987.46
2018-11-13T08:41:16.225Z,987.42
2018-11-13T08:42:16.125Z,987.48
2018-11-13T08:43:16.009Z,987.45
2018-11-13T08:44:16.008Z,987.46
2018-11-13T08:45:15.846Z,987.47
2018-11-13T08:46:15.760Z,987.50
2018-11-13T08:47:15.681Z,987.53
2018-11-13T08:48:15.594Z,987.57
2018-11-13T08:49:15.516Z,987.61
2018-11-13T08:50:15.465Z,987.67
2018-11-13T08:51:15.347Z,987.70
2018-11-13T08:52:15.294Z,987.70
2018-11-13T08:53:15.183Z,987.75
2018-11-13T08:54:15.102Z,987.74
2018-11-13T08:55:15.024Z,987.72
2018-11-13T08:56:14.933Z,987.66
2018-11-13T08:57:14.852Z,987.63
2018-11-13T08:58:14.823Z,987.63
2018-11-13T08:59:14.817Z,987.64
2018-11-13T09:00:14.610Z,987.66
2018-11-13T09:01:14.523Z,987.65
2018-11-13T09:02:14.441Z,987.69
2018-11-13T09:03:14.354Z,987.70
2018-11-13T09:04:14.272Z,987.69
2018-11-13T09:05:14.321Z,987.75
2018-11-13T09:06:14.109Z,987.80
2018-11-13T09:07:14.025Z,987.81
2018-11-13T09:08:13.943Z,987.82
2018-11-13T09:09:13.868Z,987.87
2018-11-13T09:10:13.777Z,987.86
2018-11-13T09:11:13.716Z,987.84
2018-11-13T09:12:13.683Z,987.87
2018-11-13T09:13:13.528Z,987.92
2018-11-13T09:14:13.447Z,987.92
2018-11-13T09:15:13.362Z,987.89
2018-11-13T09:16:13.279Z,987.91
2018-11-13T09:17:13.199Z,987.96
2018-11-13T09:18:13.116Z,988.00
2018-11-13T09:19:13.144Z,987.99
2018-11-13T09:20:12.956Z,988.06
2018-11-13T09:21:12.869Z,987.98
2018-11-13T09:22:12.783Z,987.97
2018-11-13T09:23:12.705Z,987.98
2018-11-13T09:24:12.622Z,987.99
2018-11-13T09:25:12.540Z,987.98
2018-11-13T09:26:12.462Z,988.00
2018-11-13T09:27:12.375Z,987.99
2018-11-13T09:28:12.288Z,988.00
2018-11-13T09:29:12.241Z,988.00
2018-11-13T09:30:12.225Z,988.08
2018-11-13T09:31:12.084Z,988.15
2018-11-13T09:32:11.957Z,988.11
2018-11-13T09:33:11.877Z,988.08
2018-11-13T09:34:11.793Z,988.08
2018-11-13T09:35:11.765Z,988.11
2018-11-13T09:36:11.635Z,988.17
2018-11-13T09:37:11.578Z,988.22
2018-11-13T09:38:11.576Z,988.26
2018-11-13T09:39:11.393Z,988.28
2018-11-13T09:40:11.299Z,988.31
2018-11-13T09:41:11.216Z,988.24
2018-11-13T09:42:11.195Z,988.22
2018-11-13T09:43:11.054Z,988.24
2018-11-13T09:44:11.002Z,988.22
2018-11-13T09:45:10.910Z,988.23
2018-11-13T09:46:10.802Z,988.24
2018-11-13T09:47:10.730Z,988.27
2018-11-13T09:48:10.638Z,988.32
2018-11-13T09:49:10.556Z,988.42
2018-11-13T09:50:10.513Z,988.41
2018-11-13T09:51:10.403Z,988.41
2018-11-13T09:52:10.333Z,988.44
2018-11-13T09:53:10.242Z,988.50
2018-11-13T09:54:10.145Z,988.50
2018-11-13T09:55:10.067Z,988.49
2018-11-13T09:56:09.986Z,988.52
2018-11-13T09:57:09.897Z,988.53
2018-11-13T09:58:09.815Z,988.55
2018-11-13T09:59:09.735Z,988.56
2018-11-13T10:00:09.836Z,988.49
2018-11-13T10:01:09.837Z,988.49
2018-11-13T10:02:10.148Z,988.52
2018-11-13T10:03:10.096Z,988.51
2018-11-13T10:04:10.059Z,988.55
2018-11-13T10:05:10.117Z,988.52
2018-11-13T10:06:09.163Z,988.53
2018-11-13T10:07:09.075Z,988.49
2018-11-13T10:08:08.998Z,988.53
2018-11-13T10:09:08.911Z,988.55
2018-11-13T10:10:08.879Z,988.61
2018-11-13T10:11:08.752Z,988.64
2018-11-13T10:12:08.665Z,988.63
2018-11-13T10:13:08.581Z,988.70
2018-11-13T10:14:08.501Z,988.70
2018-11-13T10:15:08.424Z,988.71
2018-11-13T10:16:08.339Z,988.66
2018-11-13T10:17:08.282Z,988.62
2018-11-13T10:18:08.385Z,988.62
2018-11-13T10:19:08.096Z,988.63
2018-11-13T10:20:08.010Z,988.59
2018-11-13T10:21:07.928Z,988.59
2018-11-13T10:22:07.851Z,988.60
2018-11-13T10:23:07.767Z,988.61
2018-11-13T10:24:07.681Z,988.62
2018-11-13T10:25:07.614Z,988.56
2018-11-13T10:26:07.546Z,988.53
2018-11-13T10:27:07.501Z,988.53
2018-11-13T10:28:07.358Z,988.50
2018-11-13T10:29:07.276Z,988.54
2018-11-13T10:30:07.204Z,988.54
2018-11-13T10:31:07.113Z,988.58
2018-11-13T10:32:07.027Z,988.64
2018-11-13T10:33:06.960Z,988.62
2018-11-13T10:34:06.865Z,988.63
2018-11-13T10:35:06.785Z,988.63
2018-11-13T10:36:06.706Z,988.60
2018-11-13T10:37:06.623Z,988.59
2018-11-13T10:38:06.547Z,988.57
2018-11-13T10:39:06.459Z,988.57
2018-11-13T10:40:06.464Z,988.60
2018-11-13T10:41:06.328Z,988.63
2018-11-13T10:42:06.265Z,988.63
2018-11-13T10:43:06.130Z,988.61
2018-11-13T10:44:06.075Z,988.62
2018-11-13T10:45:05.969Z,988.61
2018-11-13T10:46:05.886Z,988.59
2018-11-13T10:47:05.814Z,988.56
2018-11-13T10:48:05.724Z,988.53
2018-11-13T10:49:05.719Z,988.49
2018-11-13T10:50:05.614Z,988.51
2018-11-13T10:51:05.488Z,988.54
2018-11-13T10:52:05.404Z,988.54
2018-11-13T10:53:05.318Z,988.53
2018-11-13T10:54:05.253Z,988.55
2018-11-13T10:55:05.161Z,988.58
2018-11-13T10:56:05.072Z,988.60
2018-11-13T10:57:04.989Z,988.57
2018-11-13T10:58:04.921Z,988.60
2018-11-13T10:59:04.826Z,988.63
2018-11-13T11:00:04.752Z,988.57
2018-11-13T11:01:04.673Z,988.53
2018-11-13T11:02:04.588Z,988.50
2018-11-13T11:03:04.577Z,988.52
2018-11-13T11:04:04.445Z,988.55
2018-11-13T11:05:04.339Z,988.53
2018-11-13T11:06:04.257Z,988.50
2018-11-13T11:07:04.176Z,988.51
2018-11-13T11:08:04.094Z,988.49
2018-11-13T11:09:04.019Z,988.50
2018-11-13T11:10:03.935Z,988.49
2018-11-13T11:11:03.858Z,988.47
2018-11-13T11:12:03.795Z,988.49
2018-11-13T11:13:03.837Z,988.54
2018-11-13T11:14:03.802Z,988.54
2018-11-13T11:15:03.526Z,988.57
2018-11-13T11:16:03.451Z,988.60
2018-11-13T11:17:03.428Z,988.66
2018-11-13T11:18:03.336Z,988.69
2018-11-13T11:19:03.313Z,988.68
2018-11-13T11:20:03.137Z,988.71
2018-11-13T11:21:03.041Z,988.69
2018-11-13T11:22:02.954Z,988.65
2018-11-13T11:23:02.909Z,988.56
2018-11-13T11:24:02.831Z,988.54
2018-11-13T11:25:02.720Z,988.57
2018-11-13T11:26:02.634Z,988.54
2018-11-13T11:27:02.561Z,988.54
2018-11-13T11:28:02.529Z,988.51
2018-11-13T11:29:02.401Z,988.45
2018-11-13T11:30:02.337Z,988.46
2018-11-13T11:31:02.336Z,988.47
2018-11-13T11:32:02.139Z,988.44
2018-11-13T11:33:02.056Z,988.51
2018-11-13T11:34:01.979Z,988.48
2018-11-13T11:35:01.892Z,988.53
2018-11-13T11:36:01.810Z,988.45
2018-11-13T11:37:01.739Z,988.44
2018-11-13T11:38:01.648Z,988.52
2018-11-13T11:39:01.708Z,988.48
2018-11-13T11:40:01.485Z,988.53
2018-11-13T11:41:01.404Z,988.56
2018-11-13T11:42:01.323Z,988.66
2018-11-13T11:43:01.239Z,988.64
2018-11-13T11:44:01.204Z,988.50
2018-11-13T11:45:01.084Z,988.62
2018-11-13T11:46:00.995Z,988.68
2018-11-13T11:47:00.914Z,988.62
2018-11-13T11:48:00.885Z,988.53
2018-11-13T11:49:00.772Z,988.44
2018-11-13T11:50:00.669Z,988.46
2018-11-13T11:51:00.588Z,988.50
2018-11-13T11:52:00.507Z,988.49
2018-11-13T11:53:00.425Z,988.51
2018-11-13T11:54:00.481Z,988.49
2018-11-13T11:55:00.262Z,988.44
2018-11-13T11:56:00.179Z,988.36
2018-11-13T11:57:00.108Z,988.37
2018-11-13T11:58:00.016Z,988.37
2018-11-13T11:58:59.938Z,988.38
2018-11-13T11:59:59.857Z,988.40
2018-11-13T12:00:59.771Z,988.38
2018-11-13T12:01:59.695Z,988.45
2018-11-13T12:02:59.612Z,988.54
2018-11-13T12:03:59.529Z,988.56
2018-11-13T12:04:59.467Z,988.65
2018-11-13T12:05:59.385Z,988.72
2018-11-13T12:06:59.306Z,988.67
2018-11-13T12:07:59.228Z,988.67
2018-11-13T12:08:59.118Z,988.61
2018-11-13T12:09:59.050Z,988.62
2018-11-13T12:10:58.960Z,988.61
2018-11-13T12:11:58.877Z,988.63
2018-11-13T12:12:58.844Z,988.73
2018-11-13T12:13:58.771Z,988.75
2018-11-13T12:14:58.686Z,988.75
2018-11-13T12:15:58.567Z,988.72
2018-11-13T12:16:58.540Z,988.67
2018-11-13T12:17:58.444Z,988.67
2018-11-13T12:18:58.423Z,988.63
2018-11-13T12:19:58.223Z,988.65
2018-11-13T12:20:58.142Z,988.58
2018-11-13T12:21:58.059Z,988.60
2018-11-13T12:22:57.980Z,988.54
2018-11-13T12:23:57.895Z,988.50
2018-11-13T12:24:57.815Z,988.52
2018-11-13T12:25:57.764Z,988.58
2018-11-13T12:26:57.652Z,988.63
2018-11-13T12:27:57.599Z,988.63
2018-11-13T12:28:57.503Z,988.72
2018-11-13T12:29:57.405Z,988.68
2018-11-13T12:30:57.326Z,988.66